Aviation Digital Data Service (ADDS)

Output produced by METARs form (0954 UTC 23 July 2019)
found at http://www.aviationweather.gov/metar/data/
 
METAR text: YBCG 230930Z AUTO 31004KT 9999 // NCD 16/16 Q1019 RF00.0/000.0
Conditions at: YBCG (COOLANGATTA AWS , AU) observed 0930 UTC 23 July 2019
Temperature: 16.0°C (61°F)
Dewpoint: 16.0°C (61°F) [RH = 100%]
Pressure (altimeter): 30.09 inches Hg (1019.0 mb)
Winds: from the NW (310 degrees) at 5 MPH (4 knots; 2.1 m/s)
Visibility: 6 or more miles (10+ km)
Ceiling: at least 12,000 feet AGL
Clouds: sky clear below 12,000 feet AGL
Weather: no significant weather observed at this time

METAR text: YBCG 230900Z AUTO 30004KT 9999 // NCD 18/18 Q1019 RF00.0/000.0
Conditions at: YBCG (COOLANGATTA AWS , AU) observed 0900 UTC 23 July 2019
Temperature: 18.0°C (64°F)
Dewpoint: 18.0°C (64°F) [RH = 100%]
Pressure (altimeter): 30.09 inches Hg (1019.0 mb)
Winds: from the WNW (300 degrees) at 5 MPH (4 knots; 2.1 m/s)
Visibility: 6 or more miles (10+ km)
Ceiling: at least 12,000 feet AGL
Clouds: sky clear below 12,000 feet AGL
Weather: no significant weather observed at this time

METAR text: YBCG 230830Z AUTO 01008KT 9999 // NCD 20/17 Q1019 RF00.0/000.0
Conditions at: YBCG (COOLANGATTA AWS , AU) observed 0830 UTC 23 July 2019
Temperature: 20.0°C (68°F)
Dewpoint: 17.0°C (63°F) [RH = 83%]
Pressure (altimeter): 30.09 inches Hg (1019.0 mb)
Winds: from the N (10 degrees) at 9 MPH (8 knots; 4.1 m/s)
Visibility: 6 or more miles (10+ km)
Ceiling: at least 12,000 feet AGL
Clouds: sky clear below 12,000 feet AGL
Weather: no significant weather observed at this time

METAR text: YBCG 230800Z AUTO 36008KT 9999 // NCD 20/19 Q1018 RF00.0/000.0
Conditions at: YBCG (COOLANGATTA AWS , AU) observed 0800 UTC 23 July 2019
Temperature: 20.0°C (68°F)
Dewpoint: 19.0°C (66°F) [RH = 94%]
Pressure (altimeter): 30.06 inches Hg (1018.0 mb)
Winds: from the N (360 degrees) at 9 MPH (8 knots; 4.1 m/s)
Visibility: 6 or more miles (10+ km)
Ceiling: at least 12,000 feet AGL
Clouds: sky clear below 12,000 feet AGL
Weather: no significant weather observed at this time

METAR text: YBCG 230730Z AUTO 01008KT 9999 // NCD 20/19 Q1018 RF00.0/000.0
Conditions at: YBCG (COOLANGATTA AWS , AU) observed 0730 UTC 23 July 2019
Temperature: 20.0°C (68°F)
Dewpoint: 19.0°C (66°F) [RH = 94%]
Pressure (altimeter): 30.06 inches Hg (1018.0 mb)
Winds: from the N (10 degrees) at 9 MPH (8 knots; 4.1 m/s)
Visibility: 6 or more miles (10+ km)
Ceiling: at least 12,000 feet AGL
Clouds: sky clear below 12,000 feet AGL
Weather: no significant weather observed at this time

METAR text: YBCG 230700Z AUTO 02009KT 9999 // NCD 21/19 Q1018 RF00.0/000.0
Conditions at: YBCG (COOLANGATTA AWS , AU) observed 0700 UTC 23 July 2019
Temperature: 21.0°C (70°F)
Dewpoint: 19.0°C (66°F) [RH = 88%]
Pressure (altimeter): 30.06 inches Hg (1018.0 mb)
Winds: from the NNE (20 degrees) at 10 MPH (9 knots; 4.6 m/s)
Visibility: 6 or more miles (10+ km)
Ceiling: at least 12,000 feet AGL
Clouds: sky clear below 12,000 feet AGL
Weather: no significant weather observed at this time

METAR text: YBCG 230630Z AUTO 06007KT 9999 // NCD 21/19 Q1018 RF00.0/000.0
Conditions at: YBCG (COOLANGATTA AWS , AU) observed 0630 UTC 23 July 2019
Temperature: 21.0°C (70°F)
Dewpoint: 19.0°C (66°F) [RH = 88%]
Pressure (altimeter): 30.06 inches Hg (1018.0 mb)
Winds: from the ENE (60 degrees) at 8 MPH (7 knots; 3.6 m/s)
Visibility: 6 or more miles (10+ km)
Ceiling: at least 12,000 feet AGL
Clouds: sky clear below 12,000 feet AGL
Weather: no significant weather observed at this time

METAR text: YBCG 230600Z AUTO 03010KT 9999 // NCD 22/19 Q1017 RF00.0/000.0
Conditions at: YBCG (COOLANGATTA AWS , AU) observed 0600 UTC 23 July 2019
Temperature: 22.0°C (72°F)
Dewpoint: 19.0°C (66°F) [RH = 83%]
Pressure (altimeter): 30.03 inches Hg (1017.0 mb)
Winds: from the NNE (30 degrees) at 12 MPH (10 knots; 5.1 m/s)
Visibility: 6 or more miles (10+ km)
Ceiling: at least 12,000 feet AGL
Clouds: sky clear below 12,000 feet AGL
Weather: no significant weather observed at this time

METAR text: YBCG 230530Z AUTO 03010KT 9999 // NCD 22/19 Q1017 RF00.0/000.0
Conditions at: YBCG (COOLANGATTA AWS , AU) observed 0530 UTC 23 July 2019
Temperature: 22.0°C (72°F)
Dewpoint: 19.0°C (66°F) [RH = 83%]
Pressure (altimeter): 30.03 inches Hg (1017.0 mb)
Winds: from the NNE (30 degrees) at 12 MPH (10 knots; 5.1 m/s)
Visibility: 6 or more miles (10+ km)
Ceiling: at least 12,000 feet AGL
Clouds: sky clear below 12,000 feet AGL
Weather: no significant weather observed at this time

METAR text: YBCG 230500Z AUTO 03011KT 9999 // NCD 22/19 Q1017
Conditions at: YBCG (COOLANGATTA AWS , AU) observed 0500 UTC 23 July 2019
Temperature: 22.0°C (72°F)
Dewpoint: 19.0°C (66°F) [RH = 83%]
Pressure (altimeter): 30.03 inches Hg (1017.0 mb)
Winds: from the NNE (30 degrees) at 13 MPH (11 knots; 5.7 m/s)
Visibility: 6 or more miles (10+ km)
Ceiling: at least 12,000 feet AGL
Clouds: sky clear below 12,000 feet AGL
Weather: no significant weather observed at this time

METAR text: YBCG 230400Z AUTO 03010KT 9999 // NCD 23/19 Q1018
Conditions at: YBCG (COOLANGATTA AWS , AU) observed 0400 UTC 23 July 2019
Temperature: 23.0°C (73°F)
Dewpoint: 19.0°C (66°F) [RH = 78%]
Pressure (altimeter): 30.06 inches Hg (1018.0 mb)
Winds: from the NNE (30 degrees) at 12 MPH (10 knots; 5.1 m/s)
Visibility: 6 or more miles (10+ km)
Ceiling: at least 12,000 feet AGL
Clouds: sky clear below 12,000 feet AGL
Weather: no significant weather observed at this time

METAR text: YBCG 230300Z AUTO 03008KT 9999 // NCD 22/18 Q1018
Conditions at: YBCG (COOLANGATTA AWS , AU) observed 0300 UTC 23 July 2019
Temperature: 22.0°C (72°F)
Dewpoint: 18.0°C (64°F) [RH = 78%]
Pressure (altimeter): 30.06 inches Hg (1018.0 mb)
Winds: from the NNE (30 degrees) at 9 MPH (8 knots; 4.1 m/s)
Visibility: 6 or more miles (10+ km)
Ceiling: at least 12,000 feet AGL
Clouds: sky clear below 12,000 feet AGL
Weather: no significant weather observed at this time

METAR text: YBCG 230200Z AUTO 02008KT 9999 // NCD 21/18 Q1019
Conditions at: YBCG (COOLANGATTA AWS , AU) observed 0200 UTC 23 July 2019
Temperature: 21.0°C (70°F)
Dewpoint: 18.0°C (64°F) [RH = 83%]
Pressure (altimeter): 30.09 inches Hg (1019.0 mb)
Winds: from the NNE (20 degrees) at 9 MPH (8 knots; 4.1 m/s)
Visibility: 6 or more miles (10+ km)
Ceiling: at least 12,000 feet AGL
Clouds: sky clear below 12,000 feet AGL
Weather: no significant weather observed at this time

METAR text: YBCG 230100Z AUTO 01009KT 9999 // NCD 21/17 Q1020 RF00.0/000.0
Conditions at: YBCG (COOLANGATTA AWS , AU) observed 0100 UTC 23 July 2019
Temperature: 21.0°C (70°F)
Dewpoint: 17.0°C (63°F) [RH = 78%]
Pressure (altimeter): 30.12 inches Hg (1020.0 mb)
Winds: from the N (10 degrees) at 10 MPH (9 knots; 4.6 m/s)
Visibility: 6 or more miles (10+ km)
Ceiling: at least 12,000 feet AGL
Clouds: sky clear below 12,000 feet AGL
Weather: no significant weather observed at this time

METAR text: YBCG 230030Z AUTO 36008KT 9999 // NCD 21/17 Q1021 RF00.0/000.0
Conditions at: YBCG (COOLANGATTA AWS , AU) observed 0030 UTC 23 July 2019
Temperature: 21.0°C (70°F)
Dewpoint: 17.0°C (63°F) [RH = 78%]
Pressure (altimeter): 30.15 inches Hg (1021.0 mb)
Winds: from the N (360 degrees) at 9 MPH (8 knots; 4.1 m/s)
Visibility: 6 or more miles (10+ km)
Ceiling: at least 12,000 feet AGL
Clouds: sky clear below 12,000 feet AGL
Weather: no significant weather observed at this time

METAR text: YBCG 230000Z AUTO 36008KT 9999 // NCD 21/17 Q1021 RF00.0/000.0
Conditions at: YBCG (COOLANGATTA AWS , AU) observed 0000 UTC 23 July 2019
Temperature: 21.0°C (70°F)
Dewpoint: 17.0°C (63°F) [RH = 78%]
Pressure (altimeter): 30.15 inches Hg (1021.0 mb)
Winds: from the N (360 degrees) at 9 MPH (8 knots; 4.1 m/s)
Visibility: 6 or more miles (10+ km)
Ceiling: at least 12,000 feet AGL
Clouds: sky clear below 12,000 feet AGL
Weather: no significant weather observed at this time

METAR text: YBCG 222330Z AUTO 33006KT 9999 // NCD 20/17 Q1021 RF00.0/000.0
Conditions at: YBCG (COOLANGATTA AWS , AU) observed 2330 UTC 22 July 2019
Temperature: 20.0°C (68°F)
Dewpoint: 17.0°C (63°F) [RH = 83%]
Pressure (altimeter): 30.15 inches Hg (1021.0 mb)
Winds: from the NNW (330 degrees) at 7 MPH (6 knots; 3.1 m/s)
Visibility: 6 or more miles (10+ km)
Ceiling: at least 12,000 feet AGL
Clouds: sky clear below 12,000 feet AGL
Weather: no significant weather observed at this time

METAR text: YBCG 222300Z AUTO 31004KT 9999 // NCD 19/16 Q1021
Conditions at: YBCG (COOLANGATTA AWS , AU) observed 2300 UTC 22 July 2019
Temperature: 19.0°C (66°F)
Dewpoint: 16.0°C (61°F) [RH = 83%]
Pressure (altimeter): 30.15 inches Hg (1021.0 mb)
Winds: from the NW (310 degrees) at 5 MPH (4 knots; 2.1 m/s)
Visibility: 6 or more miles (10+ km)
Ceiling: at least 12,000 feet AGL
Clouds: sky clear below 12,000 feet AGL
Weather: no significant weather observed at this time

METAR text: YBCG 222230Z AUTO 25003KT 9999 // NCD 17/16 Q1021 RF00.0/000.0
Conditions at: YBCG (COOLANGATTA AWS , AU) observed 2230 UTC 22 July 2019
Temperature: 17.0°C (63°F)
Dewpoint: 16.0°C (61°F) [RH = 94%]
Pressure (altimeter): 30.15 inches Hg (1021.0 mb)
Winds: from the WSW (250 degrees) at 3 MPH (3 knots; 1.5 m/s)
Visibility: 6 or more miles (10+ km)
Ceiling: at least 12,000 feet AGL
Clouds: sky clear below 12,000 feet AGL
Weather: no significant weather observed at this time

METAR text: YBCG 222200Z AUTO 26004KT 9999 // SCT090 15/14 Q1021
Conditions at: YBCG (COOLANGATTA AWS , AU) observed 2200 UTC 22 July 2019
Temperature: 15.0°C (59°F)
Dewpoint: 14.0°C (57°F) [RH = 94%]
Pressure (altimeter): 30.15 inches Hg (1021.0 mb)
Winds: from the W (260 degrees) at 5 MPH (4 knots; 2.1 m/s)
Visibility: 6 or more miles (10+ km)
Ceiling: at least 12,000 feet AGL
Clouds: scattered clouds at 9000 feet AGL
Weather: no significant weather observed at this time

METAR text: YBCG 222130Z AUTO 25005KT 9999 // SCT091 13/13 Q1020 RF00.0/000.0
Conditions at: YBCG (COOLANGATTA AWS , AU) observed 2130 UTC 22 July 2019
Temperature: 13.0°C (55°F)
Dewpoint: 13.0°C (55°F) [RH = 100%]
Pressure (altimeter): 30.12 inches Hg (1020.0 mb)
Winds: from the WSW (250 degrees) at 6 MPH (5 knots; 2.6 m/s)
Visibility: 6 or more miles (10+ km)
Ceiling: at least 12,000 feet AGL
Clouds: scattered clouds at 9100 feet AGL
Weather: no significant weather observed at this time

METAR text: YBCG 222100Z AUTO 25005KT 9999 // SCT091 12/12 Q1020 RF00.0/000.0
Conditions at: YBCG (COOLANGATTA AWS , AU) observed 2100 UTC 22 July 2019
Temperature: 12.0°C (54°F)
Dewpoint: 12.0°C (54°F) [RH = 100%]
Pressure (altimeter): 30.12 inches Hg (1020.0 mb)
Winds: from the WSW (250 degrees) at 6 MPH (5 knots; 2.6 m/s)
Visibility: 6 or more miles (10+ km)
Ceiling: at least 12,000 feet AGL
Clouds: scattered clouds at 9100 feet AGL
Weather: no significant weather observed at this time

METAR text: YBCG 222030Z AUTO 25004KT 9999 // SCT091 12/12 Q1020 RF00.0/000.0
Conditions at: YBCG (COOLANGATTA AWS , AU) observed 2030 UTC 22 July 2019
Temperature: 12.0°C (54°F)
Dewpoint: 12.0°C (54°F) [RH = 100%]
Pressure (altimeter): 30.12 inches Hg (1020.0 mb)
Winds: from the WSW (250 degrees) at 5 MPH (4 knots; 2.1 m/s)
Visibility: 6 or more miles (10+ km)
Ceiling: at least 12,000 feet AGL
Clouds: scattered clouds at 9100 feet AGL
Weather: no significant weather observed at this time

METAR text: YBCG 222000Z AUTO 33006KT 9999 // SCT091 14/13 Q1019 RF00.0/000.0
Conditions at: YBCG (COOLANGATTA AWS , AU) observed 2000 UTC 22 July 2019
Temperature: 14.0°C (57°F)
Dewpoint: 13.0°C (55°F) [RH = 94%]
Pressure (altimeter): 30.09 inches Hg (1019.0 mb)
Winds: from the NNW (330 degrees) at 7 MPH (6 knots; 3.1 m/s)
Visibility: 6 or more miles (10+ km)
Ceiling: at least 12,000 feet AGL
Clouds: scattered clouds at 9100 feet AGL
Weather: no significant weather observed at this time

METAR text: YBCG 221930Z AUTO 32002KT 9999 // SCT093 14/14 Q1019 RF00.0/000.0
Conditions at: YBCG (COOLANGATTA AWS , AU) observed 1930 UTC 22 July 2019
Temperature: 14.0°C (57°F)
Dewpoint: 14.0°C (57°F) [RH = 100%]
Pressure (altimeter): 30.09 inches Hg (1019.0 mb)
Winds: from the NW (320 degrees) at 2 MPH (2 knots; 1.0 m/s)
Visibility: 6 or more miles (10+ km)
Ceiling: at least 12,000 feet AGL
Clouds: scattered clouds at 9300 feet AGL
Weather: no significant weather observed at this time

METAR text: YBCG 221900Z AUTO 34005KT 9999 // NCD 15/15 Q1019 RF00.0/000.0
Conditions at: YBCG (COOLANGATTA AWS , AU) observed 1900 UTC 22 July 2019
Temperature: 15.0°C (59°F)
Dewpoint: 15.0°C (59°F) [RH = 100%]
Pressure (altimeter): 30.09 inches Hg (1019.0 mb)
Winds: from the NNW (340 degrees) at 6 MPH (5 knots; 2.6 m/s)
Visibility: 6 or more miles (10+ km)
Ceiling: at least 12,000 feet AGL
Clouds: sky clear below 12,000 feet AGL
Weather: no significant weather observed at this time

METAR text: YBCG 221830Z AUTO 31006KT 9999 // NCD 14/13 Q1019 RF00.0/000.0
Conditions at: YBCG (COOLANGATTA AWS , AU) observed 1830 UTC 22 July 2019
Temperature: 14.0°C (57°F)
Dewpoint: 13.0°C (55°F) [RH = 94%]
Pressure (altimeter): 30.09 inches Hg (1019.0 mb)
Winds: from the NW (310 degrees) at 7 MPH (6 knots; 3.1 m/s)
Visibility: 6 or more miles (10+ km)
Ceiling: at least 12,000 feet AGL
Clouds: sky clear below 12,000 feet AGL
Weather: no significant weather observed at this time

METAR text: YBCG 221800Z AUTO 31004KT 9999 // NCD 13/13 Q1019 RF00.0/000.0
Conditions at: YBCG (COOLANGATTA AWS , AU) observed 1800 UTC 22 July 2019
Temperature: 13.0°C (55°F)
Dewpoint: 13.0°C (55°F) [RH = 100%]
Pressure (altimeter): 30.09 inches Hg (1019.0 mb)
Winds: from the NW (310 degrees) at 5 MPH (4 knots; 2.1 m/s)
Visibility: 6 or more miles (10+ km)
Ceiling: at least 12,000 feet AGL
Clouds: sky clear below 12,000 feet AGL
Weather: no significant weather observed at this time

METAR text: YBCG 221730Z AUTO 30006KT 9999 // NCD 12/12 Q1019 RF00.0/000.0
Conditions at: YBCG (COOLANGATTA AWS , AU) observed 1730 UTC 22 July 2019
Temperature: 12.0°C (54°F)
Dewpoint: 12.0°C (54°F) [RH = 100%]
Pressure (altimeter): 30.09 inches Hg (1019.0 mb)
Winds: from the WNW (300 degrees) at 7 MPH (6 knots; 3.1 m/s)
Visibility: 6 or more miles (10+ km)
Ceiling: at least 12,000 feet AGL
Clouds: sky clear below 12,000 feet AGL
Weather: no significant weather observed at this time

METAR text: YBCG 221700Z AUTO 29004KT 9999 // NCD 12/12 Q1019 RF00.0/000.0
Conditions at: YBCG (COOLANGATTA AWS , AU) observed 1700 UTC 22 July 2019
Temperature: 12.0°C (54°F)
Dewpoint: 12.0°C (54°F) [RH = 100%]
Pressure (altimeter): 30.09 inches Hg (1019.0 mb)
Winds: from the WNW (290 degrees) at 5 MPH (4 knots; 2.1 m/s)
Visibility: 6 or more miles (10+ km)
Ceiling: at least 12,000 feet AGL
Clouds: sky clear below 12,000 feet AGL
Weather: no significant weather observed at this time

METAR text: YBCG 221630Z AUTO 29006KT 9999 // NCD 13/13 Q1019 RF00.0/000.0
Conditions at: YBCG (COOLANGATTA AWS , AU) observed 1630 UTC 22 July 2019
Temperature: 13.0°C (55°F)
Dewpoint: 13.0°C (55°F) [RH = 100%]
Pressure (altimeter): 30.09 inches Hg (1019.0 mb)
Winds: from the WNW (290 degrees) at 7 MPH (6 knots; 3.1 m/s)
Visibility: 6 or more miles (10+ km)
Ceiling: at least 12,000 feet AGL
Clouds: sky clear below 12,000 feet AGL
Weather: no significant weather observed at this time

METAR text: YBCG 221600Z AUTO 29005KT 9999 // NCD 14/14 Q1019 RF00.0/000.0
Conditions at: YBCG (COOLANGATTA AWS , AU) observed 1600 UTC 22 July 2019
Temperature: 14.0°C (57°F)
Dewpoint: 14.0°C (57°F) [RH = 100%]
Pressure (altimeter): 30.09 inches Hg (1019.0 mb)
Winds: from the WNW (290 degrees) at 6 MPH (5 knots; 2.6 m/s)
Visibility: 6 or more miles (10+ km)
Ceiling: at least 12,000 feet AGL
Clouds: sky clear below 12,000 feet AGL
Weather: no significant weather observed at this time

METAR text: YBCG 221530Z AUTO 29006KT 9999 // NCD 15/14 Q1019 RF00.0/000.0
Conditions at: YBCG (COOLANGATTA AWS , AU) observed 1530 UTC 22 July 2019
Temperature: 15.0°C (59°F)
Dewpoint: 14.0°C (57°F) [RH = 94%]
Pressure (altimeter): 30.09 inches Hg (1019.0 mb)
Winds: from the WNW (290 degrees) at 7 MPH (6 knots; 3.1 m/s)
Visibility: 6 or more miles (10+ km)
Ceiling: at least 12,000 feet AGL
Clouds: sky clear below 12,000 feet AGL
Weather: no significant weather observed at this time

METAR text: YBCG 221500Z AUTO 29007KT 9999 // NCD 15/15 Q1019 RF00.0/000.0
Conditions at: YBCG (COOLANGATTA AWS , AU) observed 1500 UTC 22 July 2019
Temperature: 15.0°C (59°F)
Dewpoint: 15.0°C (59°F) [RH = 100%]
Pressure (altimeter): 30.09 inches Hg (1019.0 mb)
Winds: from the WNW (290 degrees) at 8 MPH (7 knots; 3.6 m/s)
Visibility: 6 or more miles (10+ km)
Ceiling: at least 12,000 feet AGL
Clouds: sky clear below 12,000 feet AGL
Weather: no significant weather observed at this time

METAR text: YBCG 221430Z AUTO 29006KT 9999 // NCD 15/15 Q1019 RF00.0/000.0
Conditions at: YBCG (COOLANGATTA AWS , AU) observed 1430 UTC 22 July 2019
Temperature: 15.0°C (59°F)
Dewpoint: 15.0°C (59°F) [RH = 100%]
Pressure (altimeter): 30.09 inches Hg (1019.0 mb)
Winds: from the WNW (290 degrees) at 7 MPH (6 knots; 3.1 m/s)
Visibility: 6 or more miles (10+ km)
Ceiling: at least 12,000 feet AGL
Clouds: sky clear below 12,000 feet AGL
Weather: no significant weather observed at this time

METAR text: YBCG 221400Z AUTO 29005KT 9999 // NCD 13/13 Q1019 RF00.0/000.0
Conditions at: YBCG (COOLANGATTA AWS , AU) observed 1400 UTC 22 July 2019
Temperature: 13.0°C (55°F)
Dewpoint: 13.0°C (55°F) [RH = 100%]
Pressure (altimeter): 30.09 inches Hg (1019.0 mb)
Winds: from the WNW (290 degrees) at 6 MPH (5 knots; 2.6 m/s)
Visibility: 6 or more miles (10+ km)
Ceiling: at least 12,000 feet AGL
Clouds: sky clear below 12,000 feet AGL
Weather: no significant weather observed at this time

METAR text: YBCG 221330Z AUTO 27004KT 9999 // NCD 12/12 Q1019 RF00.0/000.0
Conditions at: YBCG (COOLANGATTA AWS , AU) observed 1330 UTC 22 July 2019
Temperature: 12.0°C (54°F)
Dewpoint: 12.0°C (54°F) [RH = 100%]
Pressure (altimeter): 30.09 inches Hg (1019.0 mb)
Winds: from the W (270 degrees) at 5 MPH (4 knots; 2.1 m/s)
Visibility: 6 or more miles (10+ km)
Ceiling: at least 12,000 feet AGL
Clouds: sky clear below 12,000 feet AGL
Weather: no significant weather observed at this time

METAR text: YBCG 221300Z AUTO 28005KT 9999 // NCD 14/14 Q1019 RF00.0/000.0
Conditions at: YBCG (COOLANGATTA AWS , AU) observed 1300 UTC 22 July 2019
Temperature: 14.0°C (57°F)
Dewpoint: 14.0°C (57°F) [RH = 100%]
Pressure (altimeter): 30.09 inches Hg (1019.0 mb)
Winds: from the W (280 degrees) at 6 MPH (5 knots; 2.6 m/s)
Visibility: 6 or more miles (10+ km)
Ceiling: at least 12,000 feet AGL
Clouds: sky clear below 12,000 feet AGL
Weather: no significant weather observed at this time

METAR text: YBCG 221230Z AUTO 28005KT 9999 // NCD 13/13 Q1019 RF00.0/000.0
Conditions at: YBCG (COOLANGATTA AWS , AU) observed 1230 UTC 22 July 2019
Temperature: 13.0°C (55°F)
Dewpoint: 13.0°C (55°F) [RH = 100%]
Pressure (altimeter): 30.09 inches Hg (1019.0 mb)
Winds: from the W (280 degrees) at 6 MPH (5 knots; 2.6 m/s)
Visibility: 6 or more miles (10+ km)
Ceiling: at least 12,000 feet AGL
Clouds: sky clear below 12,000 feet AGL
Weather: no significant weather observed at this time

METAR text: YBCG 221200Z AUTO 28005KT 9999 // NCD 15/15 Q1019 RF00.0/000.0
Conditions at: YBCG (COOLANGATTA AWS , AU) observed 1200 UTC 22 July 2019
Temperature: 15.0°C (59°F)
Dewpoint: 15.0°C (59°F) [RH = 100%]
Pressure (altimeter): 30.09 inches Hg (1019.0 mb)
Winds: from the W (280 degrees) at 6 MPH (5 knots; 2.6 m/s)
Visibility: 6 or more miles (10+ km)
Ceiling: at least 12,000 feet AGL
Clouds: sky clear below 12,000 feet AGL
Weather: no significant weather observed at this time

METAR text: YBCG 221130Z AUTO 30005KT 9999 // NCD 15/14 Q1019 RF00.0/000.0
Conditions at: YBCG (COOLANGATTA AWS , AU) observed 1130 UTC 22 July 2019
Temperature: 15.0°C (59°F)
Dewpoint: 14.0°C (57°F) [RH = 94%]
Pressure (altimeter): 30.09 inches Hg (1019.0 mb)
Winds: from the WNW (300 degrees) at 6 MPH (5 knots; 2.6 m/s)
Visibility: 6 or more miles (10+ km)
Ceiling: at least 12,000 feet AGL
Clouds: sky clear below 12,000 feet AGL
Weather: no significant weather observed at this time

METAR text: YBCG 221100Z AUTO 29004KT 9999 // NCD 13/13 Q1019 RF00.0/000.0
Conditions at: YBCG (COOLANGATTA AWS , AU) observed 1100 UTC 22 July 2019
Temperature: 13.0°C (55°F)
Dewpoint: 13.0°C (55°F) [RH = 100%]
Pressure (altimeter): 30.09 inches Hg (1019.0 mb)
Winds: from the WNW (290 degrees) at 5 MPH (4 knots; 2.1 m/s)
Visibility: 6 or more miles (10+ km)
Ceiling: at least 12,000 feet AGL
Clouds: sky clear below 12,000 feet AGL
Weather: no significant weather observed at this time

METAR text: YBCG 221030Z AUTO 25004KT 9999 // SCT027 14/14 Q1019 RF00.0/000.0
Conditions at: YBCG (COOLANGATTA AWS , AU) observed 1030 UTC 22 July 2019
Temperature: 14.0°C (57°F)
Dewpoint: 14.0°C (57°F) [RH = 100%]
Pressure (altimeter): 30.09 inches Hg (1019.0 mb)
Winds: from the WSW (250 degrees) at 5 MPH (4 knots; 2.1 m/s)
Visibility: 6 or more miles (10+ km)
Ceiling: at least 12,000 feet AGL
Clouds: scattered clouds at 2700 feet AGL
Weather: no significant weather observed at this time

METAR text: YBCG 221000Z AUTO 25004KT 9999 // NCD 14/14 Q1019 RF00.0/000.0
Conditions at: YBCG (COOLANGATTA AWS , AU) observed 1000 UTC 22 July 2019
Temperature: 14.0°C (57°F)
Dewpoint: 14.0°C (57°F) [RH = 100%]
Pressure (altimeter): 30.09 inches Hg (1019.0 mb)
Winds: from the WSW (250 degrees) at 5 MPH (4 knots; 2.1 m/s)
Visibility: 6 or more miles (10+ km)
Ceiling: at least 12,000 feet AGL
Clouds: sky clear below 12,000 feet AGL
Weather: no significant weather observed at this time

METAR text: YBCG 220930Z AUTO 26003KT 9999 // NCD 15/15 Q1018 RF00.0/000.0
Conditions at: YBCG (COOLANGATTA AWS , AU) observed 0930 UTC 22 July 2019
Temperature: 15.0°C (59°F)
Dewpoint: 15.0°C (59°F) [RH = 100%]
Pressure (altimeter): 30.06 inches Hg (1018.0 mb)
Winds: from the W (260 degrees) at 3 MPH (3 knots; 1.5 m/s)
Visibility: 6 or more miles (10+ km)
Ceiling: at least 12,000 feet AGL
Clouds: sky clear below 12,000 feet AGL
Weather: no significant weather observed at this time

METAR text: YBCG 220900Z AUTO 24005KT 9999 // SCT077 16/15 Q1018 RF00.0/000.0
Conditions at: YBCG (COOLANGATTA AWS , AU) observed 0900 UTC 22 July 2019
Temperature: 16.0°C (61°F)
Dewpoint: 15.0°C (59°F) [RH = 94%]
Pressure (altimeter): 30.06 inches Hg (1018.0 mb)
Winds: from the WSW (240 degrees) at 6 MPH (5 knots; 2.6 m/s)
Visibility: 6 or more miles (10+ km)
Ceiling: at least 12,000 feet AGL
Clouds: scattered clouds at 7700 feet AGL
Weather: no significant weather observed at this time

METAR text: YBCG 220830Z AUTO 29004KT 9999 // NCD 16/16 Q1018 RF00.0/000.0
Conditions at: YBCG (COOLANGATTA AWS , AU) observed 0830 UTC 22 July 2019
Temperature: 16.0°C (61°F)
Dewpoint: 16.0°C (61°F) [RH = 100%]
Pressure (altimeter): 30.06 inches Hg (1018.0 mb)
Winds: from the WNW (290 degrees) at 5 MPH (4 knots; 2.1 m/s)
Visibility: 6 or more miles (10+ km)
Ceiling: at least 12,000 feet AGL
Clouds: sky clear below 12,000 feet AGL
Weather: no significant weather observed at this time

METAR text: YBCG 220800Z AUTO 33005KT 9999 // NCD 18/16 Q1018 RF00.0/000.0
Conditions at: YBCG (COOLANGATTA AWS , AU) observed 0800 UTC 22 July 2019
Temperature: 18.0°C (64°F)
Dewpoint: 16.0°C (61°F) [RH = 88%]
Pressure (altimeter): 30.06 inches Hg (1018.0 mb)
Winds: from the NNW (330 degrees) at 6 MPH (5 knots; 2.6 m/s)
Visibility: 6 or more miles (10+ km)
Ceiling: at least 12,000 feet AGL
Clouds: sky clear below 12,000 feet AGL
Weather: no significant weather observed at this time

METAR text: YBCG 220730Z AUTO 36008KT 9999 // NCD 18/17 Q1017 RF00.0/000.0
Conditions at: YBCG (COOLANGATTA AWS , AU) observed 0730 UTC 22 July 2019
Temperature: 18.0°C (64°F)
Dewpoint: 17.0°C (63°F) [RH = 94%]
Pressure (altimeter): 30.03 inches Hg (1017.0 mb)
Winds: from the N (360 degrees) at 9 MPH (8 knots; 4.1 m/s)
Visibility: 6 or more miles (10+ km)
Ceiling: at least 12,000 feet AGL
Clouds: sky clear below 12,000 feet AGL
Weather: no significant weather observed at this time

METAR text: YBCG 220700Z AUTO 01007KT 9999 // NCD 19/17 Q1017 RF00.0/000.0
Conditions at: YBCG (COOLANGATTA AWS , AU) observed 0700 UTC 22 July 2019
Temperature: 19.0°C (66°F)
Dewpoint: 17.0°C (63°F) [RH = 88%]
Pressure (altimeter): 30.03 inches Hg (1017.0 mb)
Winds: from the N (10 degrees) at 8 MPH (7 knots; 3.6 m/s)
Visibility: 6 or more miles (10+ km)
Ceiling: at least 12,000 feet AGL
Clouds: sky clear below 12,000 feet AGL
Weather: no significant weather observed at this time

METAR text: YBCG 220630Z AUTO 01009KT 9999 // NCD 20/18 Q1017 RF00.0/000.0
Conditions at: YBCG (COOLANGATTA AWS , AU) observed 0630 UTC 22 July 2019
Temperature: 20.0°C (68°F)
Dewpoint: 18.0°C (64°F) [RH = 88%]
Pressure (altimeter): 30.03 inches Hg (1017.0 mb)
Winds: from the N (10 degrees) at 10 MPH (9 knots; 4.6 m/s)
Visibility: 6 or more miles (10+ km)
Ceiling: at least 12,000 feet AGL
Clouds: sky clear below 12,000 feet AGL
Weather: no significant weather observed at this time

METAR text: YBCG 220600Z AUTO 03011KT 9999 // NCD 20/17 Q1016 RF00.0/000.0
Conditions at: YBCG (COOLANGATTA AWS , AU) observed 0600 UTC 22 July 2019
Temperature: 20.0°C (68°F)
Dewpoint: 17.0°C (63°F) [RH = 83%]
Pressure (altimeter): 30.00 inches Hg (1016.0 mb)
Winds: from the NNE (30 degrees) at 13 MPH (11 knots; 5.7 m/s)
Visibility: 6 or more miles (10+ km)
Ceiling: at least 12,000 feet AGL
Clouds: sky clear below 12,000 feet AGL
Weather: no significant weather observed at this time

METAR text: YBCG 220530Z AUTO 02011KT 9999 // NCD 21/17 Q1016 RF00.0/000.0
Conditions at: YBCG (COOLANGATTA AWS , AU) observed 0530 UTC 22 July 2019
Temperature: 21.0°C (70°F)
Dewpoint: 17.0°C (63°F) [RH = 78%]
Pressure (altimeter): 30.00 inches Hg (1016.0 mb)
Winds: from the NNE (20 degrees) at 13 MPH (11 knots; 5.7 m/s)
Visibility: 6 or more miles (10+ km)
Ceiling: at least 12,000 feet AGL
Clouds: sky clear below 12,000 feet AGL
Weather: no significant weather observed at this time

METAR text: YBCG 220500Z AUTO 03011KT 9999 // NCD 21/17 Q1016 RF00.0/000.0
Conditions at: YBCG (COOLANGATTA AWS , AU) observed 0500 UTC 22 July 2019
Temperature: 21.0°C (70°F)
Dewpoint: 17.0°C (63°F) [RH = 78%]
Pressure (altimeter): 30.00 inches Hg (1016.0 mb)
Winds: from the NNE (30 degrees) at 13 MPH (11 knots; 5.7 m/s)
Visibility: 6 or more miles (10+ km)
Ceiling: at least 12,000 feet AGL
Clouds: sky clear below 12,000 feet AGL
Weather: no significant weather observed at this time

METAR text: YBCG 220430Z AUTO 02011KT 9999 // NCD 21/18 Q1016 RF00.0/000.0
Conditions at: YBCG (COOLANGATTA AWS , AU) observed 0430 UTC 22 July 2019
Temperature: 21.0°C (70°F)
Dewpoint: 18.0°C (64°F) [RH = 83%]
Pressure (altimeter): 30.00 inches Hg (1016.0 mb)
Winds: from the NNE (20 degrees) at 13 MPH (11 knots; 5.7 m/s)
Visibility: 6 or more miles (10+ km)
Ceiling: at least 12,000 feet AGL
Clouds: sky clear below 12,000 feet AGL
Weather: no significant weather observed at this time

METAR text: YBCG 220400Z AUTO 01011KT 9999 // NCD 21/17 Q1016 RF00.0/000.0
Conditions at: YBCG (COOLANGATTA AWS , AU) observed 0400 UTC 22 July 2019
Temperature: 21.0°C (70°F)
Dewpoint: 17.0°C (63°F) [RH = 78%]
Pressure (altimeter): 30.00 inches Hg (1016.0 mb)
Winds: from the N (10 degrees) at 13 MPH (11 knots; 5.7 m/s)
Visibility: 6 or more miles (10+ km)
Ceiling: at least 12,000 feet AGL
Clouds: sky clear below 12,000 feet AGL
Weather: no significant weather observed at this time

METAR text: YBCG 220330Z AUTO 01012KT 9999 // NCD 21/17 Q1017 RF00.0/000.0
Conditions at: YBCG (COOLANGATTA AWS , AU) observed 0330 UTC 22 July 2019
Temperature: 21.0°C (70°F)
Dewpoint: 17.0°C (63°F) [RH = 78%]
Pressure (altimeter): 30.03 inches Hg (1017.0 mb)
Winds: from the N (10 degrees) at 14 MPH (12 knots; 6.2 m/s)
Visibility: 6 or more miles (10+ km)
Ceiling: at least 12,000 feet AGL
Clouds: sky clear below 12,000 feet AGL
Weather: no significant weather observed at this time

METAR text: YBCG 220300Z AUTO 36012KT 9999 // NCD 21/17 Q1017 RF00.0/000.0
Conditions at: YBCG (COOLANGATTA AWS , AU) observed 0300 UTC 22 July 2019
Temperature: 21.0°C (70°F)
Dewpoint: 17.0°C (63°F) [RH = 78%]
Pressure (altimeter): 30.03 inches Hg (1017.0 mb)
Winds: from the N (360 degrees) at 14 MPH (12 knots; 6.2 m/s)
Visibility: 6 or more miles (10+ km)
Ceiling: at least 12,000 feet AGL
Clouds: sky clear below 12,000 feet AGL
Weather: no significant weather observed at this time

METAR text: YBCG 220230Z AUTO 36012KT 9999 // SCT065 SCT096 20/16 Q1017
Conditions at: YBCG (COOLANGATTA AWS , AU) observed 0230 UTC 22 July 2019
Temperature: 20.0°C (68°F)
Dewpoint: 16.0°C (61°F) [RH = 78%]
Pressure (altimeter): 30.03 inches Hg (1017.0 mb)
Winds: from the N (360 degrees) at 14 MPH (12 knots; 6.2 m/s)
Visibility: 6 or more miles (10+ km)
Ceiling: at least 12,000 feet AGL
Clouds: scattered clouds at 6500 feet AGL
scattered clouds at 9600 feet AGL
Weather: no significant weather observed at this time

METAR text: YBCG 220200Z AUTO 36014KT 9999 // NCD 21/17 Q1018 RF00.0/000.0
Conditions at: YBCG (COOLANGATTA AWS , AU) observed 0200 UTC 22 July 2019
Temperature: 21.0°C (70°F)
Dewpoint: 17.0°C (63°F) [RH = 78%]
Pressure (altimeter): 30.06 inches Hg (1018.0 mb)
Winds: from the N (360 degrees) at 16 MPH (14 knots; 7.2 m/s)
Visibility: 6 or more miles (10+ km)
Ceiling: at least 12,000 feet AGL
Clouds: sky clear below 12,000 feet AGL
Weather: no significant weather observed at this time

METAR text: YBCG 220130Z AUTO 01012KT 9999 // NCD 21/17 Q1019 RF00.0/000.0
Conditions at: YBCG (COOLANGATTA AWS , AU) observed 0130 UTC 22 July 2019
Temperature: 21.0°C (70°F)
Dewpoint: 17.0°C (63°F) [RH = 78%]
Pressure (altimeter): 30.09 inches Hg (1019.0 mb)
Winds: from the N (10 degrees) at 14 MPH (12 knots; 6.2 m/s)
Visibility: 6 or more miles (10+ km)
Ceiling: at least 12,000 feet AGL
Clouds: sky clear below 12,000 feet AGL
Weather: no significant weather observed at this time

METAR text: YBCG 220100Z AUTO 36011KT 9999 // NCD 21/16 Q1019 RF00.0/000.0
Conditions at: YBCG (COOLANGATTA AWS , AU) observed 0100 UTC 22 July 2019
Temperature: 21.0°C (70°F)
Dewpoint: 16.0°C (61°F) [RH = 73%]
Pressure (altimeter): 30.09 inches Hg (1019.0 mb)
Winds: from the N (360 degrees) at 13 MPH (11 knots; 5.7 m/s)
Visibility: 6 or more miles (10+ km)
Ceiling: at least 12,000 feet AGL
Clouds: sky clear below 12,000 feet AGL
Weather: no significant weather observed at this time

METAR text: YBCG 220030Z AUTO 33008KT 9999 // NCD 22/15 Q1019 RF00.0/000.0
Conditions at: YBCG (COOLANGATTA AWS , AU) observed 0030 UTC 22 July 2019
Temperature: 22.0°C (72°F)
Dewpoint: 15.0°C (59°F) [RH = 65%]
Pressure (altimeter): 30.09 inches Hg (1019.0 mb)
Winds: from the NNW (330 degrees) at 9 MPH (8 knots; 4.1 m/s)
Visibility: 6 or more miles (10+ km)
Ceiling: at least 12,000 feet AGL
Clouds: sky clear below 12,000 feet AGL
Weather: no significant weather observed at this time

METAR text: YBCG 220000Z AUTO 31008KT 9999 // NCD 21/15 Q1019 RF00.0/000.0
Conditions at: YBCG (COOLANGATTA AWS , AU) observed 0000 UTC 22 July 2019
Temperature: 21.0°C (70°F)
Dewpoint: 15.0°C (59°F) [RH = 69%]
Pressure (altimeter): 30.09 inches Hg (1019.0 mb)
Winds: from the NW (310 degrees) at 9 MPH (8 knots; 4.1 m/s)
Visibility: 6 or more miles (10+ km)
Ceiling: at least 12,000 feet AGL
Clouds: sky clear below 12,000 feet AGL
Weather: no significant weather observed at this time

METAR text: YBCG 212330Z AUTO 30007KT 9999 // NCD 20/15 Q1020 RF00.0/000.0
Conditions at: YBCG (COOLANGATTA AWS , AU) observed 2330 UTC 21 July 2019
Temperature: 20.0°C (68°F)
Dewpoint: 15.0°C (59°F) [RH = 73%]
Pressure (altimeter): 30.12 inches Hg (1020.0 mb)
Winds: from the WNW (300 degrees) at 8 MPH (7 knots; 3.6 m/s)
Visibility: 6 or more miles (10+ km)
Ceiling: at least 12,000 feet AGL
Clouds: sky clear below 12,000 feet AGL
Weather: no significant weather observed at this time

METAR text: YBCG 212300Z AUTO 25004KT 9999 // NCD 19/15 Q1020 RF00.0/000.0
Conditions at: YBCG (COOLANGATTA AWS , AU) observed 2300 UTC 21 July 2019
Temperature: 19.0°C (66°F)
Dewpoint: 15.0°C (59°F) [RH = 78%]
Pressure (altimeter): 30.12 inches Hg (1020.0 mb)
Winds: from the WSW (250 degrees) at 5 MPH (4 knots; 2.1 m/s)
Visibility: 6 or more miles (10+ km)
Ceiling: at least 12,000 feet AGL
Clouds: sky clear below 12,000 feet AGL
Weather: no significant weather observed at this time

METAR text: YBCG 212230Z AUTO 25006KT 9999 // NCD 17/14 Q1019 RF00.0/000.0
Conditions at: YBCG (COOLANGATTA AWS , AU) observed 2230 UTC 21 July 2019
Temperature: 17.0°C (63°F)
Dewpoint: 14.0°C (57°F) [RH = 82%]
Pressure (altimeter): 30.09 inches Hg (1019.0 mb)
Winds: from the WSW (250 degrees) at 7 MPH (6 knots; 3.1 m/s)
Visibility: 6 or more miles (10+ km)
Ceiling: at least 12,000 feet AGL
Clouds: sky clear below 12,000 feet AGL
Weather: no significant weather observed at this time

METAR text: YBCG 212200Z AUTO 26006KT 9999 // NCD 14/14 Q1019 RF00.0/000.0
Conditions at: YBCG (COOLANGATTA AWS , AU) observed 2200 UTC 21 July 2019
Temperature: 14.0°C (57°F)
Dewpoint: 14.0°C (57°F) [RH = 100%]
Pressure (altimeter): 30.09 inches Hg (1019.0 mb)
Winds: from the W (260 degrees) at 7 MPH (6 knots; 3.1 m/s)
Visibility: 6 or more miles (10+ km)
Ceiling: at least 12,000 feet AGL
Clouds: sky clear below 12,000 feet AGL
Weather: no significant weather observed at this time

Forecast for: YBCG (COOLANGATTA AWS , AU)
Text: TAF YBCG 230508Z 2306/2406 01010KT CAVOK
Forecast period: 0600 to 0800 UTC 23 July 2019
Forecast type: FROM: standard forecast or significant change
Winds: from the N (10 degrees) at 12 MPH (10 knots; 5.1 m/s)
Visibility: 6 or more miles 10+ km)
Ceiling: unknown
Clouds: missing
Weather: NSW  (no significant weather)
Text: FM230800 33006KT CAVOK
Forecast period: 0800 to 1400 UTC 23 July 2019
Forecast type: FROM: standard forecast or significant change
Winds: from the NNW (330 degrees) at 7 MPH (6 knots; 3.1 m/s)
Visibility: 6 or more miles 10+ km)
Ceiling: unknown
Clouds: missing
Weather: NSW  (no significant weather)
Text: FM231400 28005KT 9999 MIFG NSC
Forecast period: 1400 to 2100 UTC 23 July 2019
Forecast type: FROM: standard forecast or significant change
Winds: from the W (280 degrees) at 6 MPH (5 knots; 2.6 m/s)
Visibility: 6 or more miles 10+ km)
Ceiling: unknown
Clouds: missing
Weather: MIFG  (shallow fog)
Text: FM232100 VRB04KT CAVOK
Forecast period: 2100 UTC 23 July 2019 to 0200 UTC 24 July 2019
Forecast type: FROM: standard forecast or significant change
Winds: variable direction winds at 5 MPH (4 knots; 2.1 m/s)
Visibility: 6 or more miles 10+ km)
Ceiling: unknown
Clouds: missing
Weather: NSW  (no significant weather)
Text: FM240200 20007KT CAVOK
Forecast period: 0200 to 0600 UTC 24 July 2019
Forecast type: FROM: standard forecast or significant change
Winds: from the SSW (200 degrees) at 8 MPH (7 knots; 3.6 m/s)
Visibility: 6 or more miles 10+ km)
Ceiling: unknown
Clouds: missing
Weather: NSW  (no significant weather)